createdAt,value
2023-02-04T00:00:38.926Z,100.00
2023-02-04T00:03:07.260Z,100.00
2023-02-04T00:05:36.790Z,100.00
2023-02-04T00:08:04.997Z,100.00
2023-02-04T00:10:33.468Z,100.00
2023-02-04T00:13:01.718Z,100.00
2023-02-04T00:15:29.632Z,100.00
2023-02-04T00:17:57.637Z,100.00
2023-02-04T00:20:25.637Z,100.00
2023-02-04T00:22:55.094Z,100.00
2023-02-04T00:25:23.042Z,100.00
2023-02-04T00:27:50.925Z,100.00
2023-02-04T00:30:19.093Z,100.00
2023-02-04T00:32:47.055Z,100.00
2023-02-04T00:35:15.439Z,100.00
2023-02-04T00:37:43.322Z,100.00
2023-02-04T00:40:14.050Z,100.00
2023-02-04T00:42:42.060Z,100.00
2023-02-04T00:45:11.600Z,100.00
2023-02-04T00:47:40.247Z,100.00
2023-02-04T00:50:08.871Z,100.00
2023-02-04T00:52:36.768Z,100.00
2023-02-04T00:55:04.905Z,100.00
2023-02-04T00:57:34.321Z,100.00
2023-02-04T01:00:02.273Z,100.00
2023-02-04T01:02:30.105Z,100.00
2023-02-04T01:04:58.562Z,100.00
2023-02-04T01:07:26.686Z,100.00
2023-02-04T01:09:54.737Z,100.00
2023-02-04T01:12:22.992Z,99.85
2023-02-04T01:14:52.431Z,100.00
2023-02-04T01:17:21.240Z,100.00
2023-02-04T01:19:49.629Z,100.00
2023-02-04T01:22:17.614Z,100.00
2023-02-04T01:24:45.569Z,100.00
2023-02-04T01:27:31.915Z,100.00
2023-02-04T01:30:01.207Z,100.00
2023-02-04T01:32:29.163Z,100.00
2023-02-04T01:34:57.331Z,100.00
2023-02-04T01:37:25.338Z,100.00
2023-02-04T01:39:53.333Z,100.00
2023-02-04T01:42:21.609Z,100.00
2023-02-04T01:44:49.858Z,100.00
2023-02-04T01:47:19.426Z,100.00
2023-02-04T01:49:52.386Z,100.00
2023-02-04T01:52:20.729Z,100.00
2023-02-04T01:54:48.801Z,100.00
2023-02-04T01:57:18.556Z,100.00
2023-02-04T01:59:48.330Z,100.00
2023-02-04T02:02:43.046Z,100.00
2023-02-04T02:05:12.522Z,100.00
2023-02-04T02:07:40.582Z,100.00
2023-02-04T02:10:11.465Z,100.00
2023-02-04T02:12:39.917Z,99.37
2023-02-04T02:15:11.157Z,99.80
2023-02-04T02:17:39.305Z,99.24
2023-02-04T02:20:10.759Z,100.00
2023-02-04T02:22:46.611Z,100.00
2023-02-04T02:25:16.779Z,100.00
2023-02-04T02:27:44.918Z,100.00
2023-02-04T02:30:17.615Z,100.00
2023-02-04T02:32:47.211Z,100.00
2023-02-04T02:35:16.569Z,100.00
2023-02-04T02:37:44.641Z,100.00
2023-02-04T02:40:16.140Z,100.00
2023-02-04T02:42:45.001Z,100.00
2023-02-04T02:45:19.446Z,100.00
2023-02-04T02:47:47.365Z,100.00
2023-02-04T02:50:20.782Z,100.00
2023-02-04T02:52:48.798Z,100.00
2023-02-04T02:55:21.508Z,100.00
2023-02-04T02:57:50.591Z,100.00
2023-02-04T03:00:22.005Z,100.00
2023-02-04T03:02:56.541Z,100.00
2023-02-04T03:05:25.943Z,100.00
2023-02-04T03:07:54.048Z,100.00
2023-02-04T03:10:23.445Z,100.00
2023-02-04T03:12:52.147Z,100.00
2023-02-04T03:15:21.300Z,100.00
2023-02-04T03:17:51.445Z,100.00
2023-02-04T03:20:19.973Z,100.00
2023-02-04T03:22:47.879Z,100.00
2023-02-04T03:25:16.257Z,100.00
2023-02-04T03:27:45.661Z,100.00
2023-02-04T03:30:13.678Z,100.00
2023-02-04T03:32:41.892Z,100.00
2023-02-04T03:35:10.183Z,100.00
2023-02-04T03:37:38.169Z,100.00
2023-02-04T03:40:06.944Z,100.00
2023-02-04T03:42:34.898Z,100.00
2023-02-04T03:45:04.304Z,100.00
2023-02-04T03:47:32.163Z,100.00
2023-02-04T03:50:00.170Z,100.00
2023-02-04T03:52:28.020Z,100.00
2023-02-04T03:54:55.981Z,100.00
2023-02-04T03:57:23.935Z,100.00
2023-02-04T03:59:51.816Z,100.00
2023-02-04T04:02:21.132Z,100.00
2023-02-04T04:04:49.035Z,100.00
2023-02-04T04:07:17.018Z,100.00
2023-02-04T04:09:45.017Z,100.00
2023-02-04T04:12:12.903Z,100.00
2023-02-04T04:14:40.821Z,100.00
2023-02-04T04:17:08.700Z,100.00
2023-02-04T04:19:37.934Z,100.00
2023-02-04T04:22:06.225Z,100.00
2023-02-04T04:24:34.088Z,100.00
2023-02-04T04:27:01.929Z,100.00
2023-02-04T04:29:29.852Z,100.00
2023-02-04T04:31:57.749Z,100.00
2023-02-04T04:34:25.735Z,100.00
2023-02-04T04:36:55.021Z,100.00
2023-02-04T04:39:23.087Z,100.00
2023-02-04T04:41:50.993Z,100.00
2023-02-04T04:44:18.908Z,100.00
2023-02-04T04:46:46.880Z,100.00
2023-02-04T04:49:14.780Z,100.00
2023-02-04T04:51:42.790Z,100.00
2023-02-04T04:54:12.047Z,100.00
2023-02-04T04:56:39.925Z,100.00
2023-02-04T04:59:07.789Z,100.00
2023-02-04T05:01:35.697Z,100.00
2023-02-04T05:04:04.212Z,100.00
2023-02-04T05:06:32.104Z,100.00
2023-02-04T05:09:00.025Z,100.00
2023-02-04T05:11:29.317Z,100.00
2023-02-04T05:13:57.254Z,100.00
2023-02-04T05:16:25.127Z,100.00
2023-02-04T05:18:53.036Z,100.00
2023-02-04T05:21:20.944Z,100.00
2023-02-04T05:23:48.863Z,100.00
2023-02-04T05:26:29.121Z,100.00
2023-02-04T05:29:00.400Z,100.00
2023-02-04T05:31:28.591Z,100.00
2023-02-04T05:33:56.605Z,100.00
2023-02-04T05:36:24.562Z,100.00
2023-02-04T05:38:52.455Z,100.00
2023-02-04T05:41:20.307Z,100.00
2023-02-04T05:43:48.173Z,100.00
2023-02-04T05:46:17.382Z,100.00
2023-02-04T05:48:45.276Z,100.00
2023-02-04T05:51:13.176Z,100.00
2023-02-04T05:53:41.032Z,100.00
2023-02-04T05:56:09.068Z,100.00
2023-02-04T05:58:38.258Z,100.00
2023-02-04T06:01:07.656Z,100.00
2023-02-04T06:03:37.060Z,100.00
2023-02-04T06:06:05.184Z,100.00
2023-02-04T06:08:33.039Z,100.00
2023-02-04T06:11:00.934Z,100.00
2023-02-04T06:13:28.814Z,100.00
2023-02-04T06:15:56.821Z,100.00
2023-02-04T06:18:24.675Z,100.00
2023-02-04T06:20:53.943Z,100.00
2023-02-04T06:23:21.806Z,100.00
2023-02-04T06:25:50.438Z,100.00
2023-02-04T06:28:18.392Z,100.00
2023-02-04T06:30:46.415Z,100.00
2023-02-04T06:33:14.427Z,100.00
2023-02-04T06:35:42.586Z,100.00
2023-02-04T06:38:11.863Z,100.00
2023-02-04T06:40:39.801Z,100.00
2023-02-04T06:43:07.778Z,100.00
2023-02-04T06:45:35.888Z,100.00
2023-02-04T06:48:03.767Z,100.00
2023-02-04T06:50:31.900Z,100.00
2023-02-04T06:53:00.014Z,99.67
2023-02-04T06:55:29.270Z,99.90
2023-02-04T06:57:57.110Z,100.00
2023-02-04T07:00:25.132Z,100.00
2023-02-04T07:02:53.144Z,100.00
2023-02-04T07:05:21.501Z,100.00
2023-02-04T07:07:49.408Z,100.00
2023-02-04T07:10:17.843Z,100.00
2023-02-04T07:12:47.215Z,100.00
2023-02-04T07:15:15.326Z,100.00
2023-02-04T07:17:43.253Z,100.00
2023-02-04T07:20:12.505Z,100.00
2023-02-04T07:22:41.178Z,100.00
2023-02-04T07:25:10.156Z,100.00
2023-02-04T07:27:38.225Z,99.96
2023-02-04T07:30:08.533Z,99.67
2023-02-04T07:32:36.380Z,100.00
2023-02-04T07:35:04.381Z,99.89
2023-02-04T07:37:32.276Z,98.68
2023-02-04T07:40:00.185Z,99.07
2023-02-04T07:42:28.105Z,98.90
2023-02-04T07:45:05.504Z,98.65
2023-02-04T07:47:34.765Z,97.98
2023-02-04T07:50:02.660Z,98.05
2023-02-04T07:52:30.572Z,97.63
2023-02-04T07:54:58.406Z,97.84
2023-02-04T07:57:26.283Z,97.93
2023-02-04T07:59:54.196Z,97.42
2023-02-04T08:02:22.593Z,96.42
2023-02-04T08:04:52.076Z,97.17
2023-02-04T08:07:20.074Z,97.23
2023-02-04T08:09:48.016Z,96.86
2023-02-04T08:12:16.351Z,96.40
2023-02-04T08:14:44.240Z,97.01
2023-02-04T08:17:12.064Z,96.89
2023-02-04T08:19:39.977Z,96.82
2023-02-04T08:22:09.161Z,96.69
2023-02-04T08:24:36.983Z,97.23
2023-02-04T08:27:05.050Z,97.76
2023-02-04T08:29:32.925Z,97.63
2023-02-04T08:32:00.866Z,97.62
2023-02-04T08:34:29.063Z,97.32
2023-02-04T08:36:56.941Z,97.93
2023-02-04T08:39:26.182Z,97.55
2023-02-04T08:41:54.121Z,98.02
2023-02-04T08:44:22.067Z,97.39
2023-02-04T08:46:50.177Z,97.82
2023-02-04T08:49:18.204Z,98.23
2023-02-04T08:51:46.109Z,98.06
2023-02-04T08:54:14.012Z,96.99
2023-02-04T08:56:43.224Z,96.90
2023-02-04T08:59:11.117Z,97.06
2023-02-04T09:01:39.057Z,96.38
2023-02-04T09:04:07.607Z,96.61
2023-02-04T09:06:35.568Z,96.58
2023-02-04T09:09:03.448Z,96.65
2023-02-04T09:11:31.371Z,95.39
2023-02-04T09:14:00.612Z,94.81
2023-02-04T09:16:28.464Z,95.16
2023-02-04T09:18:56.375Z,94.88
2023-02-04T09:21:24.286Z,92.53
2023-02-04T09:23:52.686Z,92.96
2023-02-04T09:26:20.665Z,92.16
2023-02-04T09:28:48.687Z,93.07
2023-02-04T09:31:18.874Z,91.77
2023-02-04T09:33:46.842Z,92.18
2023-02-04T09:36:14.744Z,90.83
2023-02-04T09:38:42.645Z,91.53
2023-02-04T09:41:13.757Z,91.92
2023-02-04T09:43:44.335Z,89.07
2023-02-04T09:46:21.962Z,90.12
2023-02-04T09:48:50.499Z,87.97
2023-02-04T09:51:20.654Z,89.22
2023-02-04T09:53:49.967Z,86.59
2023-02-04T09:56:19.302Z,85.86
2023-02-04T09:58:47.336Z,84.87
2023-02-04T10:01:17.265Z,87.81
2023-02-04T10:03:48.373Z,87.55
2023-02-04T10:06:18.280Z,82.89
2023-02-04T10:08:47.743Z,80.95
2023-02-04T10:11:17.424Z,81.36
2023-02-04T10:13:50.178Z,83.03
2023-02-04T10:16:21.466Z,83.57
2023-02-04T10:18:51.297Z,83.86
2023-02-04T10:21:22.172Z,82.50
2023-02-04T10:23:52.642Z,83.50
2023-02-04T10:26:22.457Z,82.44
2023-02-04T10:28:50.556Z,78.84
2023-02-04T10:31:34.290Z,77.93
2023-02-04T10:34:13.367Z,77.53
2023-02-04T10:36:42.845Z,77.05
2023-02-04T10:39:14.544Z,76.76
2023-02-04T10:41:49.608Z,77.40
2023-02-04T10:44:19.882Z,77.61
2023-02-04T10:46:48.316Z,77.53
2023-02-04T10:49:23.437Z,78.28
2023-02-04T10:51:53.474Z,79.19
2023-02-04T10:54:33.880Z,78.71
2023-02-04T10:57:10.326Z,77.93
2023-02-04T10:59:38.651Z,79.65
2023-02-04T11:02:30.672Z,78.36
2023-02-04T11:05:00.117Z,77.52
2023-02-04T11:07:29.102Z,77.38
2023-02-04T11:09:57.169Z,79.22
2023-02-04T11:12:39.137Z,79.27
2023-02-04T11:15:08.522Z,79.63
2023-02-04T11:17:36.638Z,78.88
2023-02-04T11:20:17.947Z,78.61
2023-02-04T11:22:49.404Z,77.41
2023-02-04T11:25:33.598Z,76.84
2023-02-04T11:28:02.033Z,76.44
2023-02-04T11:30:34.470Z,75.76
2023-02-04T11:33:05.257Z,75.87
2023-02-04T11:35:34.822Z,76.28
2023-02-04T11:38:02.852Z,74.99
2023-02-04T11:40:33.263Z,74.38
2023-02-04T11:43:03.887Z,75.79
2023-02-04T11:45:34.995Z,74.44
2023-02-04T11:48:05.413Z,73.82
2023-02-04T11:50:38.431Z,74.55
2023-02-04T11:53:06.811Z,75.46
2023-02-04T11:55:38.383Z,76.18
2023-02-04T11:58:08.689Z,75.69
2023-02-04T12:00:38.271Z,74.44
2023-02-04T12:03:20.945Z,75.30
2023-02-04T12:05:50.602Z,75.89
2023-02-04T12:08:30.940Z,75.46
2023-02-04T12:11:05.433Z,75.72
2023-02-04T12:13:33.661Z,76.17
2023-02-04T12:16:03.518Z,76.46
2023-02-04T12:18:33.126Z,74.93
2023-02-04T12:21:04.722Z,75.38
2023-02-04T12:23:33.119Z,76.08
2023-02-04T12:26:01.541Z,75.49
2023-02-04T12:28:30.625Z,75.45
2023-02-04T12:30:58.638Z,75.25
2023-02-04T12:33:26.616Z,75.34
2023-02-04T12:35:54.599Z,74.09
2023-02-04T12:38:23.929Z,74.57
2023-02-04T12:40:51.798Z,76.51
2023-02-04T12:43:19.698Z,74.83
2023-02-04T12:45:49.845Z,74.44
2023-02-04T12:48:19.136Z,74.68
2023-02-04T12:50:47.019Z,73.18
2023-02-04T12:53:14.930Z,71.73
2023-02-04T12:55:44.194Z,71.52
2023-02-04T12:58:12.005Z,71.67
2023-02-04T13:00:39.975Z,70.44
2023-02-04T13:03:07.817Z,70.66
2023-02-04T13:05:36.039Z,72.57
2023-02-04T13:08:03.949Z,73.12
2023-02-04T13:10:31.915Z,72.54
2023-02-04T13:13:04.020Z,70.61
2023-02-04T13:15:32.614Z,71.18
2023-02-04T13:18:00.655Z,71.01
2023-02-04T13:20:28.555Z,71.56
2023-02-04T13:22:56.460Z,70.73
2023-02-04T13:25:24.373Z,72.41
2023-02-04T13:27:52.313Z,71.86
2023-02-04T13:30:21.587Z,70.96
2023-02-04T13:32:49.569Z,70.23
2023-02-04T13:35:17.623Z,70.40
2023-02-04T13:37:45.496Z,69.76
2023-02-04T13:40:13.734Z,69.24
2023-02-04T13:42:41.660Z,68.59
2023-02-04T13:45:12.552Z,68.35
2023-02-04T13:47:41.786Z,65.15
2023-02-04T13:50:10.325Z,65.73
2023-02-04T13:52:38.231Z,65.52
2023-02-04T13:55:06.904Z,64.20
2023-02-04T13:57:35.161Z,64.92
2023-02-04T14:00:03.068Z,66.33
2023-02-04T14:02:42.800Z,65.43
2023-02-04T14:05:10.726Z,66.17
2023-02-04T14:07:38.572Z,67.05
2023-02-04T14:10:07.449Z,65.39
2023-02-04T14:12:35.309Z,65.61
2023-02-04T14:15:03.194Z,66.82
2023-02-04T14:17:31.104Z,65.54
2023-02-04T14:20:00.377Z,64.98
2023-02-04T14:22:28.489Z,65.89
2023-02-04T14:24:56.350Z,65.26
2023-02-04T14:27:24.367Z,65.73
2023-02-04T14:29:52.193Z,64.30
2023-02-04T14:32:20.964Z,64.55
2023-02-04T14:34:48.837Z,65.74
2023-02-04T14:37:18.159Z,65.61
2023-02-04T14:39:46.139Z,65.18
2023-02-04T14:42:13.987Z,66.59
2023-02-04T14:44:41.874Z,69.24
2023-02-04T14:47:09.691Z,68.54
2023-02-04T14:49:38.050Z,68.93
2023-02-04T14:52:06.419Z,68.87
2023-02-04T14:54:35.675Z,70.07
2023-02-04T14:57:04.696Z,69.34
2023-02-04T14:59:33.082Z,70.93
2023-02-04T15:02:00.945Z,71.29
2023-02-04T15:04:29.417Z,72.01
2023-02-04T15:06:57.963Z,72.35
2023-02-04T15:09:26.241Z,72.92
2023-02-04T15:11:55.678Z,72.64
2023-02-04T15:14:23.563Z,74.09
2023-02-04T15:16:51.526Z,73.68
2023-02-04T15:19:20.685Z,73.82
2023-02-04T15:21:48.599Z,75.18
2023-02-04T15:24:16.539Z,74.68
2023-02-04T15:26:44.512Z,74.65
2023-02-04T15:29:13.708Z,74.06
2023-02-04T15:31:41.755Z,73.83
2023-02-04T15:34:09.669Z,73.89
2023-02-04T15:36:37.540Z,74.24
2023-02-04T15:39:05.630Z,73.93
2023-02-04T15:41:33.521Z,73.63
2023-02-04T15:44:01.391Z,74.01
2023-02-04T15:46:32.082Z,74.16
2023-02-04T15:49:00.109Z,73.55
2023-02-04T15:51:27.993Z,73.21
2023-02-04T15:53:55.876Z,73.91
2023-02-04T15:56:23.916Z,74.35
2023-02-04T15:58:51.800Z,73.73
2023-02-04T16:01:20.023Z,74.35
2023-02-04T16:03:50.812Z,74.40
2023-02-04T16:06:18.697Z,74.22
2023-02-04T16:08:46.584Z,74.36
2023-02-04T16:11:14.439Z,74.11
2023-02-04T16:13:42.328Z,74.27
2023-02-04T16:16:10.336Z,73.36
2023-02-04T16:18:38.195Z,74.48
2023-02-04T16:21:07.593Z,75.03
2023-02-04T16:23:35.452Z,74.17
2023-02-04T16:26:03.363Z,75.41
2023-02-04T16:28:31.204Z,75.65
2023-02-04T16:30:59.117Z,75.58
2023-02-04T16:33:27.968Z,74.43
2023-02-04T16:36:01.868Z,75.25
2023-02-04T16:38:32.007Z,74.25
2023-02-04T16:41:00.176Z,74.74
2023-02-04T16:43:28.054Z,75.19
2023-02-04T16:45:56.097Z,74.40
2023-02-04T16:48:24.406Z,74.58
2023-02-04T16:50:52.324Z,74.61
2023-02-04T16:53:20.229Z,74.47
2023-02-04T16:55:49.847Z,74.40
2023-02-04T16:58:18.751Z,74.06
2023-02-04T17:00:46.861Z,73.42
2023-02-04T17:03:15.463Z,73.40
2023-02-04T17:05:43.843Z,73.27
2023-02-04T17:08:13.548Z,73.26
2023-02-04T17:10:59.355Z,73.66
2023-02-04T17:13:29.071Z,73.68
2023-02-04T17:16:00.870Z,73.90
2023-02-04T17:18:29.675Z,74.10
2023-02-04T17:20:58.199Z,74.00
2023-02-04T17:23:26.863Z,73.79
2023-02-04T17:25:54.798Z,74.35
2023-02-04T17:28:24.231Z,74.43
2023-02-04T17:30:53.883Z,75.71
2023-02-04T17:33:22.354Z,77.17
2023-02-04T17:35:50.424Z,78.50
2023-02-04T17:38:18.351Z,79.55
2023-02-04T17:40:46.619Z,80.26
2023-02-04T17:43:14.555Z,80.47
2023-02-04T17:45:42.529Z,80.52
2023-02-04T17:48:11.725Z,81.43
2023-02-04T17:50:40.455Z,82.03
2023-02-04T17:53:09.453Z,81.59
2023-02-04T17:55:39.377Z,82.08
2023-02-04T17:58:14.887Z,82.28
2023-02-04T18:00:44.471Z,82.35
2023-02-04T18:03:15.916Z,83.32
2023-02-04T18:05:46.563Z,82.30
2023-02-04T18:08:16.962Z,82.78
2023-02-04T18:10:46.533Z,82.15
2023-02-04T18:13:17.309Z,82.34
2023-02-04T18:15:47.977Z,81.25
2023-02-04T18:18:25.609Z,81.38
2023-02-04T18:20:59.881Z,81.49
2023-02-04T18:23:30.477Z,81.93
2023-02-04T18:26:05.995Z,82.40
2023-02-04T18:28:35.595Z,82.33
2023-02-04T18:31:04.689Z,82.36
2023-02-04T18:33:34.879Z,82.57
2023-02-04T18:36:03.406Z,82.96
2023-02-04T18:38:35.913Z,83.47
2023-02-04T18:41:22.900Z,83.58
2023-02-04T18:43:52.873Z,83.89
2023-02-04T18:46:25.289Z,83.96
2023-02-04T18:49:08.721Z,84.25
2023-02-04T18:51:40.287Z,84.62
2023-02-04T18:54:28.122Z,84.60
2023-02-04T18:57:03.314Z,83.92
2023-02-04T18:59:31.697Z,84.82
2023-02-04T19:01:59.897Z,84.90
2023-02-04T19:04:29.196Z,84.83
2023-02-04T19:06:57.430Z,84.48
2023-02-04T19:09:27.356Z,84.30
2023-02-04T19:11:56.535Z,85.66
2023-02-04T19:14:28.902Z,85.17
2023-02-04T19:17:08.999Z,85.44
2023-02-04T19:19:40.061Z,85.92
2023-02-04T19:22:31.934Z,85.78
2023-02-04T19:25:21.128Z,86.52
2023-02-04T19:27:53.083Z,86.04
2023-02-04T19:30:44.577Z,86.17
2023-02-04T19:33:17.794Z,86.74
2023-02-04T19:35:48.963Z,86.63
2023-02-04T19:38:38.228Z,87.48
2023-02-04T19:41:25.519Z,87.06
2023-02-04T19:43:58.031Z,86.72
2023-02-04T19:46:27.737Z,87.05
2023-02-04T19:48:57.732Z,87.04
2023-02-04T19:51:29.723Z,86.74
2023-02-04T19:54:03.642Z,86.22
2023-02-04T19:56:35.917Z,86.72
2023-02-04T19:59:24.334Z,86.81
2023-02-04T20:01:59.600Z,86.95
2023-02-04T20:04:36.281Z,86.94
2023-02-04T20:07:15.696Z,87.00
2023-02-04T20:09:43.524Z,87.02
2023-02-04T20:12:14.892Z,87.97
2023-02-04T20:14:49.260Z,87.49
2023-02-04T20:17:38.708Z,88.29
2023-02-04T20:20:26.080Z,88.88
2023-02-04T20:22:57.048Z,88.97
2023-02-04T20:25:46.963Z,89.66
2023-02-04T20:28:38.371Z,89.74
2023-02-04T20:31:23.900Z,89.12
2023-02-04T20:33:53.283Z,89.70
2023-02-04T20:36:43.186Z,89.59
2023-02-04T20:39:41.129Z,89.45
2023-02-04T20:42:25.192Z,88.66
2023-02-04T20:44:53.180Z,88.91
2023-02-04T20:47:23.009Z,89.38
2023-02-04T20:49:56.506Z,89.03
2023-02-04T20:53:01.848Z,89.46
2023-02-04T20:55:33.220Z,89.34
2023-02-04T20:58:15.364Z,90.13
2023-02-04T21:00:44.178Z,89.59
2023-02-04T21:03:25.474Z,89.81
2023-02-04T21:05:54.413Z,89.42
2023-02-04T21:08:37.288Z,90.29
2023-02-04T21:11:07.088Z,89.67
2023-02-04T21:13:35.470Z,89.30
2023-02-04T21:16:03.799Z,90.20
2023-02-04T21:18:34.473Z,89.24
2023-02-04T21:21:03.294Z,90.22
2023-02-04T21:23:31.558Z,89.16
2023-02-04T21:25:59.482Z,89.37
2023-02-04T21:28:28.860Z,90.19
2023-02-04T21:30:56.745Z,89.51
2023-02-04T21:33:24.708Z,89.57
2023-02-04T21:35:52.554Z,89.87
2023-02-04T21:38:20.606Z,89.75
2023-02-04T21:40:48.497Z,90.22
2023-02-04T21:43:16.412Z,90.73
2023-02-04T21:45:45.690Z,90.37
2023-02-04T21:48:14.789Z,90.46
2023-02-04T21:50:42.656Z,90.85
2023-02-04T21:53:10.923Z,90.21
2023-02-04T21:55:39.038Z,90.29
2023-02-04T21:58:07.347Z,90.05
2023-02-04T22:00:35.816Z,90.29
2023-02-04T22:03:06.156Z,89.88
2023-02-04T22:05:34.446Z,90.73
2023-02-04T22:08:02.515Z,90.33
2023-02-04T22:10:30.671Z,90.51
2023-02-04T22:12:58.630Z,91.09
2023-02-04T22:15:28.082Z,90.54
2023-02-04T22:17:56.460Z,90.14
2023-02-04T22:20:26.667Z,91.25
2023-02-04T22:22:54.790Z,90.97
2023-02-04T22:25:22.988Z,91.50
2023-02-04T22:27:50.920Z,91.34
2023-02-04T22:30:19.931Z,90.56
2023-02-04T22:32:47.902Z,91.22
2023-02-04T22:35:16.330Z,90.86
2023-02-04T22:37:45.571Z,91.44
2023-02-04T22:40:14.183Z,90.70
2023-02-04T22:42:42.196Z,91.29
2023-02-04T22:45:11.332Z,90.72
2023-02-04T22:47:39.761Z,90.77
2023-02-04T22:50:09.582Z,90.20
2023-02-04T22:52:37.690Z,91.02
2023-02-04T22:55:07.733Z,90.04
2023-02-04T22:57:35.630Z,90.98
2023-02-04T23:00:03.543Z,90.85
2023-02-04T23:02:31.519Z,90.83
2023-02-04T23:04:59.440Z,91.12
2023-02-04T23:07:27.826Z,91.01
2023-02-04T23:09:55.714Z,91.08
2023-02-04T23:12:24.995Z,91.84
2023-02-04T23:14:52.895Z,91.86
2023-02-04T23:17:20.807Z,91.51
2023-02-04T23:19:48.681Z,91.51
2023-02-04T23:22:18.006Z,92.20
2023-02-04T23:24:46.153Z,91.31
2023-02-04T23:27:14.072Z,92.05
2023-02-04T23:29:43.593Z,91.62
2023-02-04T23:32:11.461Z,91.22
2023-02-04T23:34:39.344Z,92.06
2023-02-04T23:37:07.191Z,91.60
2023-02-04T23:39:35.097Z,91.81
2023-02-04T23:42:03.129Z,92.05
2023-02-04T23:44:31.093Z,91.93
2023-02-04T23:47:00.324Z,91.90
2023-02-04T23:49:28.167Z,92.84
2023-02-04T23:51:56.010Z,92.07
2023-02-04T23:54:24.623Z,92.60
2023-02-04T23:56:53.353Z,92.59
2023-02-04T23:59:21.208Z,92.13
